createdAt,value
2019-02-19T00:01:04.275Z,26.33
2019-02-19T00:03:38.117Z,26.67
2019-02-19T00:06:12.086Z,26.27
2019-02-19T00:08:45.407Z,26.83
2019-02-19T00:11:19.499Z,27.20
2019-02-19T00:13:55.627Z,26.87
2019-02-19T00:16:29.538Z,28.37
2019-02-19T00:19:03.473Z,25.07
2019-02-19T00:21:37.101Z,25.20
2019-02-19T00:24:13.025Z,23.83
2019-02-19T00:26:47.078Z,21.53
2019-02-19T00:29:20.716Z,24.07
2019-02-19T00:31:53.921Z,24.00
2019-02-19T00:34:27.705Z,22.50
2019-02-19T00:37:01.526Z,24.43
2019-02-19T00:39:37.650Z,22.50
2019-02-19T00:42:11.924Z,23.53
2019-02-19T00:44:45.896Z,24.07
2019-02-19T00:47:19.726Z,23.33
2019-02-19T00:49:54.154Z,24.30
2019-02-19T00:52:27.823Z,23.20
2019-02-19T00:55:01.716Z,24.37
2019-02-19T00:57:35.285Z,24.23
2019-02-19T01:00:11.145Z,21.77
2019-02-19T01:02:46.128Z,22.23
2019-02-19T01:05:19.691Z,20.13
2019-02-19T01:07:53.950Z,20.20
2019-02-19T01:10:27.475Z,22.30
2019-02-19T01:13:01.507Z,22.47
2019-02-19T01:15:35.512Z,19.70
2019-02-19T01:18:09.241Z,21.37
2019-02-19T01:20:42.937Z,19.37
2019-02-19T01:23:16.679Z,21.50
2019-02-19T01:25:50.297Z,21.30
2019-02-19T01:28:24.237Z,21.37
2019-02-19T01:30:57.945Z,22.67
2019-02-19T01:33:31.916Z,21.70
2019-02-19T01:36:05.702Z,20.73
2019-02-19T01:38:39.645Z,18.90
2019-02-19T01:41:13.323Z,19.53
2019-02-19T01:43:47.400Z,20.20
2019-02-19T01:46:21.185Z,19.70
2019-02-19T01:48:55.199Z,19.03
2019-02-19T01:51:29.297Z,19.20
2019-02-19T01:54:02.563Z,18.83
2019-02-19T01:56:36.252Z,19.07
2019-02-19T01:59:09.692Z,20.63
2019-02-19T02:01:43.794Z,20.77
2019-02-19T02:04:18.355Z,20.27
2019-02-19T02:06:51.992Z,17.87
2019-02-19T02:09:25.563Z,20.03
2019-02-19T02:11:59.361Z,19.03
2019-02-19T02:14:33.871Z,19.50
2019-02-19T02:17:07.298Z,19.30
2019-02-19T02:19:41.224Z,19.43
2019-02-19T02:22:14.955Z,19.90
2019-02-19T02:24:48.769Z,18.17
2019-02-19T02:27:24.494Z,18.60
2019-02-19T02:29:58.347Z,18.20
2019-02-19T02:32:34.471Z,18.53
2019-02-19T02:35:11.254Z,18.43
2019-02-19T02:37:44.627Z,19.20
2019-02-19T02:40:18.866Z,18.90
2019-02-19T02:42:52.347Z,17.67
2019-02-19T02:45:27.339Z,15.27
2019-02-19T02:48:00.959Z,15.73
2019-02-19T02:50:36.621Z,14.40
2019-02-19T02:53:10.727Z,14.87
2019-02-19T02:55:44.263Z,14.00
2019-02-19T02:58:18.520Z,15.53
2019-02-19T03:00:52.282Z,14.43
2019-02-19T03:03:27.348Z,13.67
2019-02-19T03:06:31.634Z,15.00
2019-02-19T03:09:06.618Z,14.30
2019-02-19T03:11:42.093Z,14.57
2019-02-19T03:14:15.750Z,14.60
2019-02-19T03:16:49.754Z,14.43
2019-02-19T03:19:23.596Z,14.80
2019-02-19T03:21:57.536Z,13.73
2019-02-19T03:24:31.197Z,14.13
2019-02-19T03:27:05.572Z,16.10
2019-02-19T03:29:39.319Z,15.17
2019-02-19T03:32:13.414Z,16.70
2019-02-19T03:34:47.208Z,16.47
2019-02-19T03:37:21.405Z,17.20
2019-02-19T03:39:57.276Z,17.03
2019-02-19T03:42:31.453Z,16.43
2019-02-19T03:45:05.123Z,17.47
2019-02-19T03:47:38.967Z,16.23
2019-02-19T03:50:12.716Z,16.93
2019-02-19T03:52:46.795Z,14.57
2019-02-19T03:55:20.878Z,14.53
2019-02-19T03:57:57.003Z,16.20
2019-02-19T04:00:31.086Z,14.40
2019-02-19T04:03:06.982Z,16.17
2019-02-19T04:05:41.721Z,15.83
2019-02-19T04:08:16.601Z,14.80
2019-02-19T04:10:50.275Z,21.97
2019-02-19T04:13:26.012Z,13.27
2019-02-19T04:15:59.792Z,12.57
2019-02-19T04:18:33.715Z,13.10
2019-02-19T04:21:07.455Z,11.50
2019-02-19T04:23:43.345Z,11.43
2019-02-19T04:26:17.427Z,11.40
2019-02-19T04:28:51.329Z,12.30
2019-02-19T04:31:24.930Z,13.07
2019-02-19T04:33:58.912Z,12.70
2019-02-19T04:36:32.640Z,13.30
2019-02-19T04:39:07.061Z,12.57
2019-02-19T04:41:40.733Z,13.60
2019-02-19T04:44:14.539Z,14.77
2019-02-19T04:46:48.837Z,24.63
2019-02-19T04:49:22.568Z,22.10
2019-02-19T04:51:56.320Z,13.50
2019-02-19T04:54:30.172Z,13.63
2019-02-19T04:57:04.405Z,13.90
2019-02-19T04:59:38.023Z,14.77
2019-02-19T05:02:12.079Z,13.03
2019-02-19T05:04:45.629Z,13.90
2019-02-19T05:07:19.653Z,13.80
2019-02-19T05:09:54.955Z,13.03
2019-02-19T05:12:30.911Z,12.60
2019-02-19T05:15:04.784Z,13.43
2019-02-19T05:17:38.399Z,13.43
2019-02-19T05:20:12.570Z,13.43
2019-02-19T05:22:46.769Z,12.63
2019-02-19T05:25:20.946Z,13.20
2019-02-19T05:27:54.527Z,20.73
2019-02-19T05:30:28.454Z,15.37
2019-02-19T05:33:02.111Z,15.40
2019-02-19T05:35:36.288Z,16.23
2019-02-19T05:38:09.915Z,16.87
2019-02-19T05:40:43.908Z,15.93
2019-02-19T05:43:20.151Z,16.57
2019-02-19T05:45:54.557Z,17.30
2019-02-19T05:48:28.409Z,17.57
2019-02-19T05:51:02.388Z,18.23
2019-02-19T05:53:36.848Z,15.97
2019-02-19T05:56:10.975Z,16.27
2019-02-19T05:58:45.072Z,15.20
2019-02-19T06:01:18.757Z,18.13
2019-02-19T06:03:52.853Z,17.73
2019-02-19T06:06:26.355Z,16.87
2019-02-19T06:09:00.628Z,20.27
2019-02-19T06:11:36.513Z,18.63
2019-02-19T06:14:10.139Z,19.17
2019-02-19T06:16:44.361Z,21.23
2019-02-19T06:19:18.297Z,21.13
2019-02-19T06:21:52.926Z,20.40
2019-02-19T06:24:27.009Z,22.13
2019-02-19T06:27:01.982Z,21.03
2019-02-19T06:29:36.918Z,22.93
2019-02-19T06:32:11.748Z,19.60
2019-02-19T06:34:46.854Z,17.53
2019-02-19T06:37:21.897Z,19.47
2019-02-19T06:39:55.751Z,18.10
2019-02-19T06:42:30.616Z,20.37
2019-02-19T06:45:05.039Z,20.13
2019-02-19T06:47:39.159Z,19.57
2019-02-19T06:50:13.709Z,20.20
2019-02-19T06:52:47.938Z,26.47
2019-02-19T06:55:22.886Z,19.90
2019-02-19T06:57:57.550Z,20.40
2019-02-19T07:00:31.828Z,19.10
2019-02-19T07:03:38.886Z,19.47
2019-02-19T07:06:13.918Z,21.00
2019-02-19T07:08:48.377Z,21.47
2019-02-19T07:11:22.533Z,20.90
2019-02-19T07:13:58.618Z,21.60
2019-02-19T07:16:34.177Z,22.37
2019-02-19T07:19:09.244Z,17.23
2019-02-19T07:21:44.450Z,18.60
2019-02-19T07:24:18.699Z,17.73
2019-02-19T07:26:53.179Z,16.67
2019-02-19T07:29:27.576Z,20.03
2019-02-19T07:32:03.108Z,18.23
2019-02-19T07:34:37.185Z,16.17
2019-02-19T07:37:11.837Z,16.20
2019-02-19T07:39:46.757Z,16.87
2019-02-19T07:42:21.623Z,15.87
2019-02-19T07:44:56.175Z,18.33
2019-02-19T07:47:31.109Z,15.57
2019-02-19T07:50:06.759Z,16.47
2019-02-19T07:52:42.637Z,16.37
2019-02-19T07:55:18.263Z,15.30
2019-02-19T07:57:53.668Z,15.70
2019-02-19T08:00:28.643Z,16.77
2019-02-19T08:03:05.661Z,16.07
2019-02-19T08:05:41.288Z,14.17
2019-02-19T08:08:16.107Z,17.97
2019-02-19T08:10:51.647Z,17.73
2019-02-19T08:13:25.691Z,19.90
2019-02-19T08:15:59.977Z,17.30
2019-02-19T08:18:34.494Z,17.13
2019-02-19T08:21:09.403Z,19.90
2019-02-19T08:23:43.412Z,21.90
2019-02-19T08:26:18.167Z,21.00
2019-02-19T08:28:52.324Z,20.93
2019-02-19T08:31:25.706Z,20.00
2019-02-19T08:34:02.039Z,16.73
2019-02-19T08:36:36.605Z,17.80
2019-02-19T08:39:11.005Z,16.47
2019-02-19T08:41:46.575Z,15.50
2019-02-19T08:44:21.104Z,15.23
2019-02-19T08:46:56.577Z,15.87
2019-02-19T08:49:30.755Z,16.30
2019-02-19T08:52:06.052Z,24.90
2019-02-19T08:54:40.832Z,18.57
2019-02-19T08:57:16.605Z,17.17
2019-02-19T08:59:52.339Z,17.83
2019-02-19T09:02:27.352Z,18.17
2019-02-19T09:05:01.580Z,19.00
2019-02-19T09:07:36.210Z,19.00
2019-02-19T09:10:20.776Z,18.53
2019-02-19T09:12:59.700Z,18.07
2019-02-19T09:15:33.713Z,17.23
2019-02-19T09:18:08.332Z,15.43
2019-02-19T09:20:45.309Z,18.60
2019-02-19T09:23:19.789Z,19.80
2019-02-19T09:25:53.498Z,19.83
2019-02-19T09:28:28.771Z,18.43
2019-02-19T09:31:02.605Z,18.83
2019-02-19T09:33:38.106Z,17.10
2019-02-19T09:36:14.482Z,13.73
2019-02-19T09:38:50.483Z,11.50
2019-02-19T09:41:25.065Z,14.63
2019-02-19T09:44:01.221Z,15.37
2019-02-19T09:46:37.004Z,16.10
2019-02-19T09:49:15.069Z,18.83
2019-02-19T09:51:55.175Z,17.50
2019-02-19T09:54:34.684Z,15.17
2019-02-19T09:57:13.521Z,17.07
2019-02-19T09:59:49.221Z,13.03
2019-02-19T10:02:25.667Z,16.33
2019-02-19T10:05:00.867Z,14.03
2019-02-19T10:07:35.310Z,14.20
2019-02-19T10:10:13.690Z,14.13
2019-02-19T10:12:49.113Z,13.40
2019-02-19T10:15:24.371Z,12.50
2019-02-19T10:18:00.152Z,9.93
2019-02-19T10:20:37.345Z,10.20
2019-02-19T10:23:11.735Z,10.20
2019-02-19T10:25:54.051Z,12.10
2019-02-19T10:28:30.351Z,10.73
2019-02-19T10:31:08.334Z,12.63
2019-02-19T10:33:41.526Z,10.90
2019-02-19T10:36:17.405Z,9.70
2019-02-19T10:38:51.553Z,8.63
2019-02-19T10:41:26.622Z,11.10
2019-02-19T10:44:00.181Z,13.03
2019-02-19T10:46:34.938Z,9.37
2019-02-19T10:49:09.523Z,12.27
2019-02-19T10:51:46.970Z,10.40
2019-02-19T10:54:22.543Z,10.77
2019-02-19T10:56:59.756Z,9.60
2019-02-19T10:59:34.234Z,10.20
2019-02-19T11:02:10.452Z,10.40
2019-02-19T11:04:46.423Z,10.00
2019-02-19T11:07:21.409Z,11.13
2019-02-19T11:09:58.291Z,10.93
2019-02-19T11:12:37.368Z,11.60
2019-02-19T11:15:12.730Z,11.80
2019-02-19T11:17:46.921Z,12.67
2019-02-19T11:20:22.570Z,12.50
2019-02-19T11:22:58.909Z,12.73
2019-02-19T11:25:33.234Z,14.90
2019-02-19T11:28:10.213Z,14.33
2019-02-19T11:30:49.210Z,11.87
2019-02-19T11:33:24.967Z,9.07
2019-02-19T11:35:59.485Z,9.53
2019-02-19T11:38:34.069Z,10.53
2019-02-19T11:41:09.965Z,12.10
2019-02-19T11:43:46.203Z,11.83
2019-02-19T11:46:21.207Z,12.77
2019-02-19T11:48:56.619Z,11.20
2019-02-19T11:51:30.686Z,11.63
2019-02-19T11:54:05.631Z,11.83
2019-02-19T11:56:40.380Z,12.17
2019-02-19T11:59:15.101Z,11.67
2019-02-19T12:01:50.459Z,11.87
2019-02-19T12:04:25.690Z,12.23
2019-02-19T12:07:00.747Z,13.07
2019-02-19T12:09:37.141Z,12.33
2019-02-19T12:12:13.418Z,12.73
2019-02-19T12:14:50.662Z,11.57
2019-02-19T12:17:26.382Z,10.97
2019-02-19T12:20:01.782Z,11.23
2019-02-19T12:22:36.907Z,11.23
2019-02-19T12:25:13.391Z,12.37
2019-02-19T12:27:49.565Z,12.97
2019-02-19T12:30:24.414Z,14.73
2019-02-19T12:32:59.084Z,12.07
2019-02-19T12:35:33.487Z,12.13
2019-02-19T12:38:08.239Z,12.07
2019-02-19T12:40:44.247Z,13.20
2019-02-19T12:43:19.505Z,13.80
2019-02-19T12:45:56.406Z,13.90
2019-02-19T12:48:33.867Z,13.83
2019-02-19T12:51:08.951Z,12.80
2019-02-19T12:53:44.482Z,13.53
2019-02-19T12:56:21.694Z,13.70
2019-02-19T12:58:57.014Z,12.00
2019-02-19T13:01:34.897Z,11.90
2019-02-19T13:04:12.417Z,11.93
2019-02-19T13:06:47.959Z,11.53
2019-02-19T13:09:22.312Z,11.57
2019-02-19T13:11:56.589Z,11.70
2019-02-19T13:14:31.129Z,12.07
2019-02-19T13:17:05.799Z,12.33
2019-02-19T13:19:41.690Z,11.50
2019-02-19T13:22:17.056Z,12.43
2019-02-19T13:24:51.372Z,11.70
2019-02-19T13:27:27.520Z,12.70
2019-02-19T13:30:02.918Z,11.73
2019-02-19T13:32:39.447Z,12.63
2019-02-19T13:35:15.937Z,12.57
2019-02-19T13:37:51.160Z,11.80
2019-02-19T13:40:26.895Z,11.80
2019-02-19T13:43:01.224Z,11.40
2019-02-19T13:45:35.197Z,12.83
2019-02-19T13:48:10.915Z,11.53
2019-02-19T13:50:44.812Z,12.83
2019-02-19T13:53:40.321Z,13.30
2019-02-19T13:56:14.857Z,11.87
2019-02-19T13:58:49.626Z,12.23
2019-02-19T14:01:24.108Z,11.53
2019-02-19T14:04:02.698Z,12.57
2019-02-19T14:06:37.255Z,12.00
2019-02-19T14:09:12.070Z,13.97
2019-02-19T14:11:50.234Z,12.47
2019-02-19T14:14:45.254Z,11.83
2019-02-19T14:17:24.244Z,12.53
2019-02-19T14:20:06.395Z,12.77
2019-02-19T14:23:10.048Z,13.07
2019-02-19T14:25:56.987Z,12.80
2019-02-19T14:28:56.865Z,12.57
2019-02-19T14:31:50.691Z,13.40
2019-02-19T14:34:52.647Z,14.47
2019-02-19T14:37:46.668Z,14.40
2019-02-19T14:40:36.722Z,13.23
2019-02-19T14:43:29.546Z,13.67
2019-02-19T14:46:39.535Z,14.40
2019-02-19T14:49:37.102Z,15.17
2019-02-19T14:52:29.377Z,14.93
2019-02-19T14:55:17.803Z,15.40
2019-02-19T14:58:20.573Z,15.30
2019-02-19T15:01:14.283Z,14.90
2019-02-19T15:04:07.461Z,15.07
2019-02-19T15:07:01.641Z,16.50
2019-02-19T15:09:57.546Z,15.80
2019-02-19T15:12:46.386Z,16.43
2019-02-19T15:15:43.320Z,16.40
2019-02-19T15:18:35.043Z,17.00
2019-02-19T15:21:26.025Z,16.80
2019-02-19T15:24:29.412Z,18.77
2019-02-19T15:27:15.806Z,17.53
2019-02-19T15:30:12.818Z,17.20
2019-02-19T15:33:08.531Z,19.77
2019-02-19T15:36:00.173Z,16.93
2019-02-19T15:38:55.438Z,18.23
2019-02-19T15:42:04.235Z,17.03
2019-02-19T15:44:58.057Z,19.20
2019-02-19T15:48:00.990Z,18.40
2019-02-19T15:51:01.205Z,18.77
2019-02-19T15:53:55.335Z,21.23
2019-02-19T15:56:48.324Z,22.03
2019-02-19T15:59:37.137Z,22.67
2019-02-19T16:02:41.290Z,23.07
2019-02-19T16:05:47.193Z,22.63
2019-02-19T16:08:41.711Z,23.87
2019-02-19T16:11:42.489Z,23.73
2019-02-19T16:14:25.225Z,23.33
2019-02-19T16:17:26.431Z,23.33
2019-02-19T16:20:37.664Z,24.37
2019-02-19T16:23:32.439Z,23.80
2019-02-19T16:26:37.695Z,24.57
2019-02-19T16:29:31.578Z,25.03
2019-02-19T16:32:28.939Z,27.67
2019-02-19T16:35:35.121Z,23.60
2019-02-19T16:38:30.763Z,29.53
2019-02-19T16:41:27.884Z,26.47
2019-02-19T16:44:20.764Z,25.17
2019-02-19T16:47:30.165Z,26.00
2019-02-19T16:50:32.051Z,27.17
2019-02-19T16:53:26.080Z,30.33
2019-02-19T16:56:03.947Z,30.23
2019-02-19T16:59:08.282Z,31.43
2019-02-19T17:02:13.544Z,32.47
2019-02-19T17:05:08.643Z,32.13
2019-02-19T17:07:54.966Z,34.57
2019-02-19T17:11:05.894Z,35.07
2019-02-19T17:14:03.459Z,35.40
2019-02-19T17:17:08.735Z,36.50
2019-02-19T17:20:21.174Z,35.87
2019-02-19T17:23:22.684Z,37.63
2019-02-19T17:26:12.588Z,37.53
2019-02-19T17:29:07.079Z,39.43
2019-02-19T17:32:08.465Z,40.87
2019-02-19T17:35:01.675Z,42.63
2019-02-19T17:37:59.083Z,41.50
2019-02-19T17:40:51.254Z,40.77
2019-02-19T17:43:39.737Z,41.60
2019-02-19T17:46:42.858Z,41.77
2019-02-19T17:49:25.122Z,44.47
2019-02-19T17:52:18.512Z,49.83
2019-02-19T17:55:19.501Z,47.80
2019-02-19T17:58:14.122Z,48.23
2019-02-19T18:01:04.677Z,46.20
2019-02-19T18:03:59.308Z,46.33
2019-02-19T18:07:04.652Z,48.83
2019-02-19T18:10:08.824Z,48.10
2019-02-19T18:13:00.921Z,39.37
2019-02-19T18:15:55.156Z,36.80
2019-02-19T18:18:54.787Z,40.20
2019-02-19T18:21:28.914Z,40.70
2019-02-19T18:24:03.078Z,42.50
2019-02-19T18:26:37.634Z,40.60
2019-02-19T18:29:12.215Z,41.10
2019-02-19T18:31:48.191Z,46.70
2019-02-19T18:34:22.280Z,47.10
2019-02-19T18:36:57.360Z,49.63
2019-02-19T18:39:32.602Z,44.83
2019-02-19T18:42:06.657Z,46.53
2019-02-19T18:44:40.775Z,46.40
2019-02-19T18:47:15.006Z,48.30
2019-02-19T18:49:49.331Z,46.93
2019-02-19T18:52:23.269Z,51.77
2019-02-19T18:54:57.897Z,54.13
2019-02-19T18:57:32.007Z,60.20
2019-02-19T19:00:07.354Z,66.80
2019-02-19T19:02:43.984Z,71.20
2019-02-19T19:05:18.835Z,75.17
2019-02-19T19:07:55.213Z,78.93
2019-02-19T19:10:30.864Z,84.23
2019-02-19T19:13:05.503Z,77.20
2019-02-19T19:15:40.385Z,79.43
2019-02-19T19:18:19.090Z,80.27
2019-02-19T19:20:52.665Z,79.47
2019-02-19T19:23:27.018Z,74.23
2019-02-19T19:26:01.243Z,73.40
2019-02-19T19:28:35.852Z,74.93
2019-02-19T19:31:11.814Z,71.70
2019-02-19T19:33:47.458Z,75.43
2019-02-19T19:36:21.553Z,70.00
2019-02-19T19:38:56.818Z,74.50
2019-02-19T19:41:33.016Z,72.37
2019-02-19T19:44:08.973Z,70.27
2019-02-19T19:46:44.245Z,73.47
2019-02-19T19:49:21.045Z,74.17
2019-02-19T19:51:55.496Z,76.63
2019-02-19T19:54:30.011Z,72.00
2019-02-19T19:57:04.879Z,73.57
2019-02-19T19:59:39.256Z,65.47
2019-02-19T20:02:13.371Z,65.77
2019-02-19T20:04:47.370Z,63.87
2019-02-19T20:07:22.352Z,63.10
2019-02-19T20:09:58.514Z,65.43
2019-02-19T20:12:33.081Z,61.07
2019-02-19T20:15:07.546Z,60.53
2019-02-19T20:17:41.750Z,58.87
2019-02-19T20:20:15.570Z,62.43
2019-02-19T20:22:51.512Z,64.70
2019-02-19T20:25:25.472Z,59.53
2019-02-19T20:28:00.746Z,55.20
2019-02-19T20:30:37.188Z,52.23
2019-02-19T20:33:11.767Z,48.53
2019-02-19T20:35:47.183Z,47.73
2019-02-19T20:38:21.428Z,47.07
2019-02-19T20:40:56.264Z,49.70
2019-02-19T20:43:30.614Z,49.70
2019-02-19T20:46:05.449Z,47.83
2019-02-19T20:48:39.970Z,47.43
2019-02-19T20:51:13.703Z,48.90
2019-02-19T20:53:47.747Z,45.97
2019-02-19T20:56:21.512Z,42.87
2019-02-19T20:58:55.494Z,44.10
2019-02-19T21:01:29.382Z,43.60
2019-02-19T21:04:03.710Z,44.80
2019-02-19T21:06:37.480Z,46.73
2019-02-19T21:09:11.705Z,45.90
2019-02-19T21:11:46.070Z,41.27
2019-02-19T21:14:20.396Z,41.30
2019-02-19T21:16:54.878Z,40.20
2019-02-19T21:19:29.685Z,39.47
2019-02-19T21:22:03.368Z,43.17
2019-02-19T21:24:38.757Z,40.03
2019-02-19T21:27:14.000Z,37.87
2019-02-19T21:29:48.544Z,38.77
2019-02-19T21:32:22.724Z,39.43
2019-02-19T21:34:57.760Z,43.40
2019-02-19T21:37:33.998Z,41.67
2019-02-19T21:40:09.598Z,40.00
2019-02-19T21:42:45.544Z,44.10
2019-02-19T21:45:19.577Z,40.17
2019-02-19T21:47:53.298Z,38.27
2019-02-19T21:50:26.856Z,35.87
2019-02-19T21:53:03.713Z,37.67
2019-02-19T21:55:38.187Z,36.80
2019-02-19T21:58:12.428Z,37.90
2019-02-19T22:00:46.120Z,37.03
2019-02-19T22:03:22.308Z,38.87
2019-02-19T22:05:56.280Z,33.97
2019-02-19T22:08:29.956Z,32.27
2019-02-19T22:11:04.446Z,31.03
2019-02-19T22:13:38.126Z,31.43
2019-02-19T22:16:12.646Z,31.07
2019-02-19T22:18:46.459Z,32.20
2019-02-19T22:21:38.905Z,35.33
2019-02-19T22:24:12.605Z,33.57
2019-02-19T22:26:47.148Z,35.90
2019-02-19T22:29:21.302Z,35.30
2019-02-19T22:31:55.265Z,34.90
2019-02-19T22:34:31.426Z,33.73
2019-02-19T22:37:05.815Z,32.23
2019-02-19T22:39:39.549Z,32.67
2019-02-19T22:42:13.586Z,30.30
2019-02-19T22:44:48.597Z,30.90
2019-02-19T22:47:23.622Z,30.33
2019-02-19T22:49:57.528Z,30.30
2019-02-19T22:52:31.712Z,34.73
2019-02-19T22:55:12.931Z,30.87
2019-02-19T22:57:47.092Z,28.43
2019-02-19T23:00:38.957Z,28.47
2019-02-19T23:03:15.020Z,27.77
2019-02-19T23:05:48.962Z,28.37
2019-02-19T23:08:24.159Z,27.60
2019-02-19T23:10:58.042Z,28.30
2019-02-19T23:13:32.846Z,27.47
2019-02-19T23:16:06.572Z,26.07
2019-02-19T23:18:40.755Z,27.23
2019-02-19T23:21:14.342Z,27.43
2019-02-19T23:23:48.794Z,26.00
2019-02-19T23:26:24.904Z,26.47
2019-02-19T23:28:58.856Z,28.87
2019-02-19T23:31:32.396Z,27.03
2019-02-19T23:34:06.455Z,26.87
2019-02-19T23:36:53.440Z,30.07
2019-02-19T23:39:27.378Z,28.40
2019-02-19T23:42:03.274Z,28.63
2019-02-19T23:44:37.387Z,27.30
2019-02-19T23:47:12.105Z,27.37
2019-02-19T23:49:46.415Z,27.27
2019-02-19T23:52:19.885Z,26.83
2019-02-19T23:54:53.866Z,28.77
2019-02-19T23:57:27.363Z,27.23
